Time;durP1;ratioP1;P1;durP2;ratioP2;P2;SDS_P1;SDS_P2;PMS_P1;PMS_P2;Temp;Humidity;BMP_temperature;BMP_pressure;BME280_temperature;BME280_humidity;BME280_pressure;Samples;Min_cycle;Max_cycle;Signal;HPM_P1;HPM_P2
2023/02/23 00:02:04;;;;;;;17.23;12.05;;;;;;;6.54;100.00;100439.81;5091062;28;20036;-78
2023/02/23 00:04:31;;;;;;;18.20;13.48;;;;;;;6.51;100.00;100441.56;5098420;28;20052;-77
2023/02/23 00:06:58;;;;;;;18.63;12.73;;;;;;;6.46;100.00;100444.13;5092690;28;20044;-78
2023/02/23 00:09:24;;;;;;;24.23;14.27;;;;;;;6.45;100.00;100447.56;5104248;28;20044;-77
2023/02/23 00:11:56;;;;;;;15.30;10.80;;;;;;;6.41;100.00;100444.13;5090017;28;20050;-77
2023/02/23 00:14:27;;;;;;;20.33;13.25;;;;;;;6.40;100.00;100452.78;5087392;28;20101;-76
2023/02/23 00:16:55;;;;;;;18.17;11.73;;;;;;;6.36;100.00;100445.81;5086558;28;20105;-79
2023/02/23 00:19:23;;;;;;;18.88;13.27;;;;;;;6.34;100.00;100444.06;5085855;28;20101;-78
2023/02/23 00:21:50;;;;;;;18.40;11.60;;;;;;;6.38;100.00;100448.44;5080635;28;20086;-79
2023/02/23 00:24:18;;;;;;;18.90;12.35;;;;;;;6.41;100.00;100448.44;5085920;28;20119;-79
2023/02/23 00:26:46;;;;;;;20.52;13.00;;;;;;;6.42;100.00;100443.22;5086429;28;20075;-78
2023/02/23 00:29:20;;;;;;;17.85;12.45;;;;;;;6.47;100.00;100443.25;5101992;28;20060;-76
2023/02/23 00:31:48;;;;;;;18.33;11.25;;;;;;;6.51;100.00;100442.41;5085922;28;20047;-75
2023/02/23 00:34:19;;;;;;;17.90;12.10;;;;;;;6.58;100.00;100444.19;5089531;28;20651;-80
2023/02/23 00:36:50;;;;;;;17.88;12.85;;;;;;;6.61;100.00;100440.72;5087802;28;20154;-78
2023/02/23 00:39:20;;;;;;;18.13;12.57;;;;;;;6.66;100.00;100440.72;5082407;28;20044;-79
2023/02/23 00:41:47;;;;;;;18.48;11.98;;;;;;;6.71;100.00;100444.22;5087707;28;20058;-78
2023/02/23 00:44:14;;;;;;;18.15;13.27;;;;;;;6.73;100.00;100445.09;5086530;28;20052;-78
2023/02/23 00:46:44;;;;;;;18.50;12.13;;;;;;;6.72;100.00;100445.97;5074002;28;20486;-79
2023/02/23 00:49:12;;;;;;;19.20;12.70;;;;;;;6.72;100.00;100456.38;5107125;28;20068;-77
2023/02/23 00:51:40;;;;;;;17.27;12.52;;;;;;;6.70;100.00;100445.06;5085192;28;20069;-76
2023/02/23 00:54:07;;;;;;;16.20;12.60;;;;;;;6.71;100.00;100450.28;5089387;28;20044;-79
2023/02/23 00:56:34;;;;;;;17.75;12.05;;;;;;;6.69;100.00;100454.63;5087490;28;20045;-78
2023/02/23 00:59:00;;;;;;;17.52;12.63;;;;;;;6.70;100.00;100450.28;5088127;28;20116;-78
2023/02/23 01:01:28;;;;;;;16.90;12.10;;;;;;;6.72;100.00;100459.81;5081054;28;20048;-79
2023/02/23 01:03:54;;;;;;;18.13;12.13;;;;;;;6.69;100.00;100454.63;5087044;28;20044;-77
2023/02/23 01:06:24;;;;;;;16.40;10.70;;;;;;;6.71;100.00;100454.63;5103835;28;20048;-75
2023/02/23 01:08:56;;;;;;;13.45;9.85;;;;;;;6.68;100.00;100455.47;5071354;28;20151;-76
2023/02/23 01:11:29;;;;;;;15.57;11.40;;;;;;;6.67;100.00;100456.34;5075386;28;20043;-78
2023/02/23 01:17:24;;;;;;;16.08;11.25;;;;;;;6.65;100.00;100459.78;5088871;28;20048;-77
2023/02/23 01:19:54;;;;;;;13.43;10.35;;;;;;;6.62;100.00;100458.03;5105351;28;20139;-78
2023/02/23 01:22:23;;;;;;;14.52;9.95;;;;;;;6.55;100.00;100459.75;5075764;28;20486;-80
2023/02/23 01:25:11;;;;;;;21.25;11.68;;;;;;;6.54;100.00;100460.63;5075307;28;20085;-76
2023/02/23 01:27:47;;;;;;;18.08;12.15;;;;;;;6.50;100.00;100461.47;5091085;28;20036;-78
2023/02/23 01:30:41;;;;;;;15.40;11.07;;;;;;;6.48;100.00;100462.31;5101328;28;20684;-77
2023/02/23 01:33:21;;;;;;;20.83;12.30;;;;;;;6.43;100.00;100463.19;5088449;28;20105;-75
2023/02/23 01:35:59;;;;;;;15.52;11.43;;;;;;;6.42;100.00;100470.97;5086891;28;20040;-77
2023/02/23 01:38:35;;;;;;;12.93;9.30;;;;;;;6.41;100.00;100467.53;5089656;28;20064;-77
2023/02/23 01:41:11;;;;;;;22.40;12.82;;;;;;;6.41;100.00;100470.13;5105015;28;20535;-79
2023/02/23 01:44:12;;;;;;;14.25;11.07;;;;;;;6.42;100.00;100470.97;5103934;28;20042;-78
2023/02/23 01:46:45;;;;;;;15.75;11.32;;;;;;;6.39;100.00;100474.44;5087590;28;20028;-76
2023/02/23 01:49:19;;;;;;;16.90;11.75;;;;;;;6.40;100.00;100473.56;5058936;28;20131;-77
2023/02/23 01:51:55;;;;;;;24.45;15.20;;;;;;;6.39;100.00;100481.38;5096927;28;20089;-77
2023/02/23 01:54:35;;;;;;;25.02;14.40;;;;;;;6.38;100.00;100484.81;5083239;28;20070;-77
2023/02/23 01:57:03;;;;;;;24.35;14.82;;;;;;;6.37;100.00;100483.94;5103915;28;20028;-79
2023/02/23 01:59:45;;;;;;;17.45;13.18;;;;;;;6.38;100.00;100479.63;5082555;28;20063;-79
2023/02/23 02:02:12;;;;;;;19.13;12.75;;;;;;;6.37;100.00;100473.53;5095346;28;20070;-79
2023/02/23 02:04:43;;;;;;;24.63;14.65;;;;;;;6.39;100.00;100478.78;5084259;28;20044;-76
2023/02/23 02:07:20;;;;;;;27.75;16.10;;;;;;;6.39;100.00;100474.44;5082942;28;20063;-77
2023/02/23 02:10:38;;;;;;;25.27;17.00;;;;;;;6.42;100.00;100479.63;5086723;28;20047;-77
2023/02/23 02:12:52;;;;;;;30.58;18.00;;;;;;;6.49;100.00;100480.53;5089204;28;20093;-78
2023/02/23 02:15:24;;;;;;;29.75;19.08;;;;;;;6.55;100.00;100477.97;5085188;28;20139;-80
2023/02/23 02:18:10;;;;;;;33.50;19.98;;;;;;;6.64;100.00;100484.09;5085731;28;20044;-79
2023/02/23 02:21:30;;;;;;;30.52;19.63;;;;;;;6.69;100.00;100471.94;5083913;28;20041;-77
2023/02/23 02:24:10;;;;;;;32.05;18.13;;;;;;;6.74;100.00;100481.53;5100213;28;20044;-77
2023/02/23 02:26:55;;;;;;;33.33;19.48;;;;;;;6.76;100.00;100481.53;5099766;28;20397;-76
2023/02/23 02:30:00;;;;;;;35.03;20.42;;;;;;;6.78;100.00;100482.41;5100905;28;20067;-79
2023/02/23 02:33:25;;;;;;;27.10;16.88;;;;;;;6.83;100.00;100488.50;5081533;28;20046;-78
2023/02/23 02:36:41;;;;;;;33.63;20.42;;;;;;;6.84;100.00;100489.38;5078669;28;20045;-79
2023/02/23 02:39:33;;;;;;;37.30;22.42;;;;;;;6.87;100.00;100486.75;5083606;28;20055;-78
2023/02/23 02:42:33;;;;;;;35.88;21.58;;;;;;;6.90;100.00;100478.97;5081889;28;20552;-79
2023/02/23 02:45:15;;;;;;;38.08;22.67;;;;;;;6.96;100.00;100486.78;5098529;28;20036;-78
2023/02/23 02:47:51;;;;;;;38.55;24.17;;;;;;;6.99;100.00;100488.53;5083065;28;20493;-79
2023/02/23 02:50:30;;;;;;;41.38;24.48;;;;;;;7.03;100.00;100488.56;5099974;28;20071;-80
2023/02/23 02:53:09;;;;;;;43.03;25.63;;;;;;;7.04;100.00;100477.28;5085234;28;20082;-76
2023/02/23 02:55:42;;;;;;;40.83;25.33;;;;;;;7.06;100.00;100482.50;5084432;28;20413;-77
2023/02/23 02:58:11;;;;;;;40.85;27.52;;;;;;;7.05;100.00;100481.63;5069626;28;20123;-80
2023/02/23 04:18:05;;;;;;;42.30;25.23;;;;;;;6.95;100.00;100478.13;5093720;28;20037;-79
2023/02/23 04:20:32;;;;;;;42.45;26.17;;;;;;;6.95;100.00;100474.66;5106777;27;20039;-79
2023/02/23 04:22:58;;;;;;;35.08;24.85;;;;;;;6.96;100.00;100473.78;5087469;28;20052;-76
2023/02/23 04:25:25;;;;;;;48.97;27.85;;;;;;;6.98;100.00;100482.47;5091870;28;20052;-76
2023/02/23 04:27:52;;;;;;;37.28;24.05;;;;;;;7.00;100.00;100477.25;5087897;28;20050;-78
2023/02/23 04:30:19;;;;;;;40.30;24.85;;;;;;;7.02;100.00;100484.22;5085630;28;20109;-75
2023/02/23 04:32:45;;;;;;;43.45;27.20;;;;;;;7.07;100.00;100479.03;5089608;28;20218;-77
2023/02/23 04:35:13;;;;;;;35.22;24.05;;;;;;;7.14;100.00;100479.91;5085703;28;20040;-76
2023/02/23 04:37:39;;;;;;;41.22;23.65;;;;;;;7.19;100.00;100484.25;5084405;28;21208;-76
2023/02/23 04:40:07;;;;;;;46.33;26.48;;;;;;;7.23;100.00;100486.00;5082913;28;20040;-79
2023/02/23 04:42:33;;;;;;;38.70;23.30;;;;;;;7.25;100.00;100484.28;5102386;27;20147;-78
2023/02/23 04:45:00;;;;;;;33.72;21.75;;;;;;;7.31;100.00;100488.63;5100372;27;20087;-77
2023/02/23 04:47:26;;;;;;;39.25;24.17;;;;;;;7.35;100.00;100481.69;5083095;28;20036;-82
2023/02/23 04:49:53;;;;;;;42.97;25.48;;;;;;;7.39;100.00;100480.81;5086969;28;20044;-76
2023/02/23 04:52:20;;;;;;;39.97;23.75;;;;;;;7.43;100.00;100485.16;5086296;28;20039;-80
2023/02/23 04:54:47;;;;;;;41.15;26.40;;;;;;;7.45;100.00;100483.44;5084875;28;20043;-78
2023/02/23 04:57:13;;;;;;;41.45;25.55;;;;;;;7.49;100.00;100486.91;5067295;28;20059;-81
2023/02/23 04:59:40;;;;;;;37.58;23.88;;;;;;;7.50;100.00;100484.31;5083815;28;20032;-79
2023/02/23 05:02:07;;;;;;;40.05;25.50;;;;;;;7.53;100.00;100488.66;5083279;28;20048;-78
2023/02/23 05:04:34;;;;;;;46.72;25.10;;;;;;;7.57;100.00;100486.06;5087235;28;20067;-76
2023/02/23 05:07:02;;;;;;;33.08;21.58;;;;;;;7.60;100.00;100485.16;5088344;28;20075;-78
2023/02/23 05:09:29;;;;;;;41.80;25.25;;;;;;;7.61;100.00;100495.63;5084833;28;20108;-78
2023/02/23 05:11:56;;;;;;;44.20;25.42;;;;;;;7.63;100.00;100498.22;5085219;28;20036;-76
2023/02/23 05:14:23;;;;;;;40.20;26.67;;;;;;;7.66;100.00;100499.97;5069933;28;20047;-78
2023/02/23 05:16:49;;;;;;;37.60;25.00;;;;;;;7.67;100.00;100499.94;5086107;28;20044;-79
2023/02/23 05:19:16;;;;;;;33.72;22.75;;;;;;;7.70;100.00;100496.47;5084204;28;20047;-80
2023/02/23 05:21:43;;;;;;;41.67;22.08;;;;;;;7.69;100.00;100495.63;5103117;28;20064;-78
2023/02/23 05:24:10;;;;;;;39.75;25.63;;;;;;;7.71;100.00;100495.63;5065265;28;20046;-78
2023/02/23 05:26:37;;;;;;;47.45;26.77;;;;;;;7.68;100.00;100493.88;5083232;28;20039;-79
2023/02/23 05:29:05;;;;;;;47.47;30.30;;;;;;;7.69;100.00;100494.72;5091748;28;20060;-77
2023/02/23 05:31:32;;;;;;;53.42;30.95;;;;;;;7.70;100.00;100491.25;5090411;28;20040;-77
2023/02/23 05:33:59;;;;;;;47.28;29.08;;;;;;;7.69;100.00;100493.00;5085120;28;20553;-76
2023/02/23 05:36:26;;;;;;;42.78;29.13;;;;;;;7.69;100.00;100490.41;5090748;28;20055;-78
2023/02/23 05:38:53;;;;;;;46.65;27.52;;;;;;;7.68;100.00;100493.88;5089215;28;20047;-79
2023/02/23 05:41:22;;;;;;;42.65;28.17;;;;;;;7.66;100.00;100490.38;5088052;28;20048;-77
2023/02/23 05:43:52;;;;;;;49.78;30.00;;;;;;;7.66;100.00;100497.34;5087718;28;20087;-76
2023/02/23 05:46:23;;;;;;;53.67;33.42;;;;;;;7.64;100.00;100492.16;5096573;28;20044;-75
2023/02/23 05:48:50;;;;;;;53.72;30.30;;;;;;;7.63;100.00;100490.41;5076772;28;20048;-78
2023/02/23 05:51:17;;;;;;;53.70;31.83;;;;;;;7.62;100.00;100497.31;5082811;28;20062;-79
2023/02/23 05:53:47;;;;;;;55.58;33.20;;;;;;;7.60;100.00;100491.25;5080487;28;20036;-78
2023/02/23 05:56:19;;;;;;;50.90;31.45;;;;;;;7.56;100.00;100489.53;5083498;28;20475;-77
2023/02/23 05:58:57;;;;;;;49.15;29.50;;;;;;;7.52;100.00;100494.72;5086246;28;20482;-78
2023/02/23 06:01:25;;;;;;;60.17;33.47;;;;;;;7.49;100.00;100489.53;5086101;28;20072;-76
2023/02/23 06:03:51;;;;;;;53.33;30.42;;;;;;;7.46;100.00;100495.59;5084111;28;20114;-78
2023/02/23 06:06:19;;;;;;;53.55;32.53;;;;;;;7.47;100.00;100493.84;5071893;28;20710;-77
2023/02/23 06:08:47;;;;;;;61.47;33.15;;;;;;;7.46;100.00;100495.59;5088599;28;20044;-79
2023/02/23 06:11:13;;;;;;;54.60;32.22;;;;;;;7.49;100.00;100499.94;5103270;28;20039;-77
2023/02/23 06:13:40;;;;;;;61.60;35.08;;;;;;;7.49;100.00;100497.34;5085819;28;20125;-76
2023/02/23 06:16:08;;;;;;;58.42;31.58;;;;;;;7.48;100.00;100496.44;5088965;28;20050;-78
2023/02/23 06:18:34;;;;;;;59.25;34.58;;;;;;;7.48;100.00;100496.44;5090419;28;20728;-77
2023/02/23 06:21:02;;;;;;;52.78;30.95;;;;;;;7.50;100.00;100504.28;5081132;28;20100;-77
2023/02/23 06:23:30;;;;;;;61.60;33.17;;;;;;;7.49;100.00;100506.00;5083294;28;20119;-79
2023/02/23 06:25:58;;;;;;;61.58;34.13;;;;;;;7.51;100.00;100504.28;5086091;28;20044;-81
2023/02/23 06:28:25;;;;;;;60.15;34.08;;;;;;;7.52;100.00;100508.63;5101091;27;20544;-80
2023/02/23 06:30:53;;;;;;;57.95;33.65;;;;;;;7.51;100.00;100509.50;5072573;28;20537;-76
2023/02/23 06:33:23;;;;;;;58.33;32.63;;;;;;;7.51;100.00;100508.59;5083893;28;20044;-79
2023/02/23 06:35:50;;;;;;;58.35;33.03;;;;;;;7.51;100.00;100512.09;5077470;28;20039;-79
2023/02/23 06:38:16;;;;;;;65.32;37.83;;;;;;;7.51;100.00;100512.09;5076537;28;20059;-79
2023/02/23 06:40:43;;;;;;;62.22;33.92;;;;;;;7.53;100.00;100514.69;5073936;28;20486;-79
2023/02/23 06:43:10;;;;;;;59.88;35.13;;;;;;;7.53;100.00;100512.94;5078611;28;20645;-81
2023/02/23 06:45:36;;;;;;;60.35;34.45;;;;;;;7.53;100.00;100514.69;5034878;28;20047;-84
2023/02/23 06:48:03;;;;;;;62.13;36.28;;;;;;;7.53;100.00;100525.13;5058097;28;20082;-78
2023/02/23 06:50:29;;;;;;;59.28;33.72;;;;;;;7.53;100.00;100514.69;5056309;28;20048;-77
2023/02/23 06:52:56;;;;;;;66.75;34.45;;;;;;;7.52;100.00;100516.44;5061149;28;20406;-77
2023/02/23 06:55:23;;;;;;;64.57;34.70;;;;;;;7.52;100.00;100511.25;5077862;28;20071;-79
2023/02/23 06:57:55;;;;;;;60.95;36.03;;;;;;;7.54;100.00;100516.44;5009773;28;20647;-80
2023/02/23 07:00:22;;;;;;;60.58;34.83;;;;;;;7.53;100.00;100519.91;5072092;28;20036;-81
2023/02/23 07:02:49;;;;;;;68.78;35.75;;;;;;;7.54;100.00;100519.91;5079852;28;20080;-82
2023/02/23 07:05:16;;;;;;;59.67;34.22;;;;;;;7.55;100.00;100532.06;5069392;28;20052;-81
2023/02/23 07:07:42;;;;;;;58.35;32.70;;;;;;;7.56;100.00;100532.94;5080947;28;20505;-79
2023/02/23 07:10:10;;;;;;;57.30;32.33;;;;;;;7.55;100.00;100532.06;5083589;28;20116;-78
2023/02/23 07:12:36;;;;;;;62.88;33.55;;;;;;;7.58;100.00;100539.03;5094995;28;20045;-78
2023/02/23 07:15:03;;;;;;;61.25;34.47;;;;;;;7.58;100.00;100539.88;5083387;28;20406;-77
2023/02/23 07:17:30;;;;;;;67.35;36.38;;;;;;;7.59;100.00;100541.63;5086058;28;20047;-75
2023/02/23 07:19:57;;;;;;;66.47;34.85;;;;;;;7.61;100.00;100544.22;5085314;28;20051;-75
2023/02/23 07:22:26;;;;;;;54.13;31.33;;;;;;;7.59;100.00;100545.97;5067142;28;20425;-77
2023/02/23 07:24:53;;;;;;;59.33;34.13;;;;;;;7.59;100.00;100545.97;5085003;28;20087;-79
2023/02/23 07:27:19;;;;;;;64.70;35.92;;;;;;;7.59;100.00;100549.44;5098526;28;20482;-78
2023/02/23 07:29:48;;;;;;;61.92;35.00;;;;;;;7.58;100.00;100555.50;5084338;28;20043;-77
2023/02/23 07:32:15;;;;;;;61.10;32.60;;;;;;;7.60;100.00;100552.91;5080939;28;20044;-80
2023/02/23 07:34:41;;;;;;;55.70;32.90;;;;;;;7.62;100.00;100559.00;5089960;28;20107;-80
2023/02/23 07:37:08;;;;;;;58.70;33.63;;;;;;;7.65;100.00;100560.75;5090546;28;20043;-77
2023/02/23 07:39:34;;;;;;;64.55;38.30;;;;;;;7.67;100.00;100566.84;5089810;28;20044;-76
2023/02/23 07:42:03;;;;;;;57.65;33.67;;;;;;;7.66;100.00;100562.47;5090702;28;20036;-78
2023/02/23 07:44:30;;;;;;;67.60;35.80;;;;;;;7.65;100.00;100571.16;5089049;28;20494;-78
2023/02/23 07:46:56;;;;;;;70.07;39.17;;;;;;;7.59;100.00;100564.22;5085975;28;20036;-79
2023/02/23 07:49:25;;;;;;;59.38;35.15;;;;;;;7.59;100.00;100569.44;5091550;28;20044;-79
2023/02/23 07:51:52;;;;;;;65.75;36.08;;;;;;;7.60;100.00;100565.94;5080543;28;20131;-77
2023/02/23 07:54:18;;;;;;;68.80;38.90;;;;;;;7.58;100.00;100565.06;5091191;28;20115;-80
2023/02/23 07:56:45;;;;;;;66.28;38.67;;;;;;;7.58;100.00;100563.31;5086820;28;20382;-79
2023/02/23 07:59:11;;;;;;;59.03;36.38;;;;;;;7.57;100.00;100565.94;5105829;28;20052;-81
2023/02/23 08:01:38;;;;;;;66.32;36.33;;;;;;;7.56;100.00;100570.28;5070436;28;20058;-76
2023/02/23 08:04:08;;;;;;;64.32;36.72;;;;;;;7.56;100.00;100561.59;5088681;28;20126;-77
2023/02/23 08:06:34;;;;;;;63.92;35.45;;;;;;;7.54;100.00;100560.72;5102079;28;20097;-78
2023/02/23 08:09:03;;;;;;;66.40;38.08;;;;;;;7.54;100.00;100566.78;5081413;28;20141;-80
2023/02/23 08:11:30;;;;;;;66.47;36.75;;;;;;;7.51;100.00;100566.81;5103137;27;20039;-78
2023/02/23 08:13:58;;;;;;;59.00;33.83;;;;;;;7.52;100.00;100570.25;5103520;28;20048;-78
2023/02/23 08:16:32;;;;;;;65.32;36.97;;;;;;;7.52;100.00;100560.72;5084355;28;20055;-78
2023/02/23 08:19:01;;;;;;;59.95;36.03;;;;;;;7.52;100.00;100565.06;5084092;28;20048;-80
2023/02/23 08:21:28;;;;;;;61.88;36.67;;;;;;;7.50;100.00;100565.06;5090540;28;20471;-77
2023/02/23 08:23:56;;;;;;;63.35;34.90;;;;;;;7.51;100.00;100574.63;5083306;28;20038;-76
2023/02/23 08:26:24;;;;;;;61.78;36.05;;;;;;;7.53;100.00;100575.47;5082930;28;20032;-79
2023/02/23 08:28:52;;;;;;;63.28;35.10;;;;;;;7.53;100.00;100578.06;5085671;28;20054;-78
2023/02/23 08:31:21;;;;;;;60.30;34.33;;;;;;;7.51;100.00;100577.22;5100289;28;20054;-77
2023/02/23 08:33:48;;;;;;;56.38;35.42;;;;;;;7.56;100.00;100578.09;5100226;27;20048;-79
2023/02/23 08:36:15;;;;;;;63.72;34.65;;;;;;;7.56;100.00;100588.53;5084333;28;20050;-78
2023/02/23 08:38:41;;;;;;;57.60;33.42;;;;;;;7.49;100.00;100586.75;5086218;28;20082;-80
2023/02/23 08:41:08;;;;;;;60.60;32.28;;;;;;;7.50;100.00;100585.91;5081067;28;20045;-79
2023/02/23 08:43:34;;;;;;;60.33;32.97;;;;;;;7.51;100.00;100590.25;5083330;28;20961;-77
2023/02/23 08:46:02;;;;;;;58.83;35.78;;;;;;;7.50;100.00;100592.84;5086058;28;20046;-81
2023/02/23 08:48:29;;;;;;;59.92;33.78;;;;;;;7.54;100.00;100592.00;5086375;28;20123;-80
2023/02/23 08:50:57;;;;;;;58.97;33.10;;;;;;;7.54;100.00;100598.06;5087364;28;20062;-80
2023/02/23 08:53:26;;;;;;;60.95;35.55;;;;;;;7.62;100.00;100598.06;5085636;28;20482;-78
2023/02/23 08:56:11;;;;;;;64.93;34.47;;;;;;;7.64;100.00;100600.69;5085728;28;20120;-80
2023/02/23 08:58:38;;;;;;;59.05;33.22;;;;;;;7.64;100.00;100600.69;5087016;28;20155;-77
2023/02/23 09:01:05;;;;;;;58.78;33.35;;;;;;;7.67;100.00;100605.91;5085908;28;20474;-76
2023/02/23 09:03:32;;;;;;;60.90;32.60;;;;;;;7.68;100.00;100605.03;5082636;28;20086;-80
2023/02/23 09:06:10;;;;;;;59.05;32.97;;;;;;;7.70;100.00;100606.75;5089699;28;20050;-81
2023/02/23 09:08:38;;;;;;;58.92;32.72;;;;;;;7.71;100.00;100610.25;5084792;28;20484;-79
2023/02/23 09:11:05;;;;;;;61.00;34.08;;;;;;;7.69;100.00;100615.47;5083766;28;20059;-77
2023/02/23 09:13:32;;;;;;;62.80;35.25;;;;;;;7.70;100.00;100611.13;5100540;27;20047;-79
2023/02/23 09:16:07;;;;;;;60.30;32.55;;;;;;;7.66;100.00;100614.59;5081102;28;20051;-79
2023/02/23 09:18:33;;;;;;;64.22;34.15;;;;;;;7.66;100.00;100615.44;5087365;28;20042;-80
2023/02/23 09:21:06;;;;;;;69.18;36.38;;;;;;;7.67;100.00;100622.41;5083977;28;20032;-76
2023/02/23 09:23:36;;;;;;;67.28;36.85;;;;;;;7.65;100.00;100623.28;5087302;28;20039;-76
2023/02/23 09:26:08;;;;;;;60.40;32.65;;;;;;;7.62;100.00;100626.72;5091587;28;20040;-75
2023/02/23 09:28:36;;;;;;;67.22;36.55;;;;;;;7.62;100.00;100627.59;5084952;28;20108;-76
2023/02/23 09:31:16;;;;;;;71.32;38.42;;;;;;;7.68;100.00;100624.16;5076251;28;20036;-78
2023/02/23 09:33:43;;;;;;;72.20;38.90;;;;;;;7.65;100.00;100624.13;5087710;28;20055;-76
2023/02/23 09:36:17;;;;;;;56.83;32.30;;;;;;;7.70;100.00;100631.97;5106474;27;20047;-82
2023/02/23 09:38:53;;;;;;;54.17;31.98;;;;;;;7.72;100.00;100631.09;5069794;28;20067;-78
2023/02/23 09:41:26;;;;;;;63.65;33.90;;;;;;;7.72;100.00;100632.84;5084860;28;20040;-79
2023/02/23 09:44:03;;;;;;;60.93;33.97;;;;;;;7.74;100.00;100633.72;5086740;28;20035;-78
2023/02/23 09:46:39;;;;;;;57.28;31.63;;;;;;;7.78;100.00;100636.34;5086500;28;20043;-79
2023/02/23 09:49:15;;;;;;;57.72;34.63;;;;;;;7.80;100.00;100635.47;5097830;28;20050;-76
2023/02/23 09:51:50;;;;;;;56.17;31.52;;;;;;;7.78;100.00;100641.56;5084065;28;20047;-78
2023/02/23 09:54:18;;;;;;;48.10;29.75;;;;;;;7.73;100.00;100638.06;5101182;28;20242;-80
2023/02/23 09:56:48;;;;;;;49.28;29.73;;;;;;;7.69;100.00;100636.31;5088186;28;20123;-76
2023/02/23 09:59:27;;;;;;;47.42;26.92;;;;;;;7.70;100.00;100643.25;5100258;27;20067;-80
2023/02/23 10:02:18;;;;;;;49.85;30.90;;;;;;;7.71;100.00;100642.38;5085504;28;20051;-76
2023/02/23 10:04:53;;;;;;;45.40;27.98;;;;;;;7.67;100.00;100645.84;5085479;28;20143;-80
2023/02/23 10:07:44;;;;;;;;;;;;;;;7.67;100.00;100648.47;5084078;28;20044;-77
2023/02/23 10:10:38;;;;;;;50.58;29.00;;;;;;;7.68;100.00;100647.59;5089677;28;19920;-76
2023/02/23 10:13:21;;;;;;;;;;;;;;;7.70;100.00;100652.81;5083933;28;20627;-77
2023/02/23 10:15:58;;;;;;;42.20;24.90;;;;;;;7.65;100.00;100652.78;5103879;28;19931;-77
2023/02/23 10:18:40;;;;;;;42.63;25.88;;;;;;;7.62;100.00;100653.63;5098309;28;20033;-76
2023/02/23 10:21:34;;;;;;;49.17;28.55;;;;;;;7.61;100.00;100658.84;5087558;28;20055;-76
2023/02/23 10:24:10;;;;;;;48.40;27.83;;;;;;;7.65;100.00;100660.59;5096726;28;20667;-77
2023/02/23 10:26:54;;;;;;;48.33;27.20;;;;;;;7.69;100.00;100659.78;5089195;28;20050;-78
2023/02/23 10:29:34;;;;;;;46.17;26.73;;;;;;;7.73;100.00;100658.03;5105029;27;20059;-76
2023/02/23 10:32:19;;;;;;;46.10;27.27;;;;;;;7.77;100.00;100651.97;5087829;28;20051;-75
2023/02/23 10:34:48;;;;;;;46.65;27.83;;;;;;;7.80;100.00;100651.13;5089038;28;20123;-78
2023/02/23 10:37:17;;;;;;;47.97;28.27;;;;;;;7.81;100.00;100652.84;5086485;28;20061;-77
2023/02/23 10:39:45;;;;;;;43.47;25.52;;;;;;;7.79;100.00;100652.84;5084767;28;20169;-76
2023/02/23 10:42:22;;;;;;;43.40;24.67;;;;;;;7.82;100.00;100658.03;5086209;28;20065;-77
2023/02/23 10:44:50;;;;;;;42.22;24.65;;;;;;;7.84;100.00;100652.84;5086851;28;20032;-76
2023/02/23 10:47:26;;;;;;;45.50;26.88;;;;;;;7.86;100.00;100661.53;5081266;28;20044;-77
2023/02/23 10:49:55;;;;;;;47.55;27.00;;;;;;;7.88;100.00;100655.47;5095222;28;20044;-77
2023/02/23 10:52:31;;;;;;;41.88;26.20;;;;;;;7.90;100.00;100661.56;5097546;28;20047;-77
2023/02/23 10:54:57;;;;;;;49.45;27.75;;;;;;;7.93;100.00;100656.34;5088662;28;20118;-80
2023/02/23 10:57:31;;;;;;;39.90;25.15;;;;;;;7.92;100.00;100656.34;5086142;28;20052;-77
2023/02/23 11:00:07;;;;;;;48.30;28.02;;;;;;;7.88;100.00;100649.38;5074442;28;20147;-77
2023/02/23 11:02:35;;;;;;;46.35;25.80;;;;;;;7.86;100.00;100643.28;5089250;28;20039;-77
2023/02/23 11:05:03;;;;;;;40.15;24.17;;;;;;;7.89;100.00;100649.38;5098138;28;20126;-76
2023/02/23 11:07:32;;;;;;;42.30;25.25;;;;;;;7.93;100.00;100652.88;5078133;28;20040;-79
2023/02/23 11:10:23;;;;;;;40.42;24.52;;;;;;;7.99;100.00;100647.69;5099140;27;20098;-77
2023/02/23 11:12:50;;;;;;;41.28;23.08;;;;;;;8.02;100.00;100644.22;5083292;28;20048;-76
2023/02/23 11:15:29;;;;;;;42.83;25.10;;;;;;;8.09;100.00;100648.53;5084112;28;20071;-77
2023/02/23 11:18:02;;;;;;;37.50;23.23;;;;;;;8.10;100.00;100647.69;5082623;28;20151;-78
2023/02/23 11:20:38;;;;;;;37.15;23.35;;;;;;;8.15;100.00;100634.63;5083123;28;20513;-79
2023/02/23 11:23:33;;;;;;;31.92;22.58;;;;;;;8.16;100.00;100641.59;5098936;28;20047;-79
2023/02/23 11:26:04;;;;;;;34.17;21.13;;;;;;;8.18;100.00;100637.25;5085321;28;20064;-77
2023/02/23 11:28:40;;;;;;;30.40;19.55;;;;;;;8.23;100.00;100632.91;5081494;28;20064;-77
2023/02/23 11:31:19;;;;;;;37.35;21.63;;;;;;;8.22;100.00;100633.78;5088141;28;20048;-76
2023/02/23 11:33:47;;;;;;;35.00;21.40;;;;;;;8.23;100.00;100633.78;5080988;28;20627;-76
2023/02/23 11:36:26;;;;;;;32.60;20.92;;;;;;;8.21;100.00;100632.94;5085525;28;20059;-78
2023/02/23 11:39:28;;;;;;;32.47;20.83;;;;;;;8.26;100.00;100628.56;5099515;28;20058;-77
2023/02/23 11:42:15;;;;;;;30.60;20.48;;;;;;;8.27;100.00;100637.25;5024157;28;20055;-77
2023/02/23 11:44:41;;;;;;;29.80;18.90;;;;;;;8.23;100.00;100628.56;5075724;28;20060;-79
2023/02/23 11:47:19;;;;;;;29.90;18.83;;;;;;;8.29;100.00;100627.69;5095320;28;20545;-80
2023/02/23 11:49:50;;;;;;;30.58;19.50;;;;;;;8.34;100.00;100623.34;5090145;28;20109;-77
2023/02/23 11:52:21;;;;;;;30.13;18.92;;;;;;;8.38;100.00;100625.09;5068342;28;20414;-76
2023/02/23 11:55:05;;;;;;;30.50;19.45;;;;;;;8.41;100.00;100624.22;5081043;28;20891;-77
2023/02/23 11:57:35;;;;;;;28.42;18.17;;;;;;;8.44;100.00;100619.00;5085350;28;20463;-77
2023/02/23 12:00:13;;;;;;;25.52;16.55;;;;;;;8.42;100.00;100615.50;5081235;28;20036;-77
2023/02/23 12:02:55;;;;;;;26.30;16.67;;;;;;;8.35;100.00;100621.63;5098568;28;20046;-78
2023/02/23 12:05:28;;;;;;;28.08;17.67;;;;;;;8.29;100.00;100614.63;5075609;28;20115;-76
2023/02/23 12:08:09;;;;;;;25.70;17.75;;;;;;;8.25;100.00;100619.00;5090568;28;20143;-79
2023/02/23 12:10:44;;;;;;;27.15;16.50;;;;;;;8.18;100.00;100616.41;5093663;28;20050;-80
2023/02/23 12:13:45;;;;;;;34.38;20.80;;;;;;;8.15;100.00;100614.66;5085674;28;20081;-80
2023/02/23 12:16:26;;;;;;;26.67;17.08;;;;;;;8.13;100.00;100608.56;5089724;28;20051;-82
2023/02/23 12:19:01;;;;;;;27.92;17.13;;;;;;;8.16;100.00;100600.75;5092102;28;20734;-80
2023/02/23 12:21:42;;;;;;;27.08;17.42;;;;;;;8.15;100.00;100609.44;5091971;28;20599;-76
2023/02/23 12:24:45;;;;;;;28.02;18.20;;;;;;;8.21;100.00;100613.78;5105829;28;20054;-80
2023/02/23 12:27:16;;;;;;;28.90;17.35;;;;;;;8.31;100.00;100602.47;5089744;28;20043;-78
2023/02/23 12:30:18;;;;;;;29.33;18.58;;;;;;;8.40;100.00;100596.41;5105458;27;20058;-78
2023/02/23 12:32:56;;;;;;;28.55;18.67;;;;;;;8.43;100.00;100591.16;5075714;28;20053;-77
2023/02/23 12:35:43;;;;;;;27.58;17.35;;;;;;;8.42;100.00;100599.84;5087893;28;20044;-79
2023/02/23 12:38:44;;;;;;;37.97;21.20;;;;;;;8.27;100.00;100604.22;5084447;28;20124;-77
2023/02/23 12:41:14;;;;;;;37.20;20.98;;;;;;;8.22;100.00;100607.72;5087657;28;20040;-75
2023/02/23 12:44:00;;;;;;;41.60;23.13;;;;;;;8.14;100.00;100601.63;5104156;28;20054;-78
2023/02/23 12:46:42;;;;;;;33.90;20.33;;;;;;;8.17;100.00;100609.44;5102112;28;20047;-80
2023/02/23 12:49:39;;;;;;;40.22;20.83;;;;;;;8.21;100.00;100606.84;5086037;28;20055;-78
2023/02/23 12:52:32;;;;;;;43.38;22.98;;;;;;;8.24;100.00;100600.75;5101683;28;20475;-80
2023/02/23 12:54:58;;;;;;;41.58;21.30;;;;;;;8.31;100.00;100609.44;5089998;28;20131;-80
2023/02/23 12:57:46;;;;;;;44.40;23.90;;;;;;;8.39;100.00;100603.34;5101605;27;20407;-77